createdAt,value
2018-09-01T00:00:23.120Z,99.90
2018-09-01T00:02:51.182Z,99.90
2018-09-01T00:05:20.783Z,99.90
2018-09-01T00:07:49.336Z,99.90
2018-09-01T00:10:17.357Z,99.90
2018-09-01T00:12:45.308Z,99.90
2018-09-01T00:15:13.296Z,99.90
2018-09-01T00:17:41.220Z,99.90
2018-09-01T00:20:09.568Z,99.90
2018-09-01T00:22:37.910Z,99.90
2018-09-01T00:25:06.261Z,99.90
2018-09-01T00:27:34.282Z,99.90
2018-09-01T00:30:02.722Z,99.90
2018-09-01T00:32:30.792Z,99.90
2018-09-01T00:34:58.824Z,99.90
2018-09-01T00:37:32.324Z,99.90
2018-09-01T00:40:00.984Z,99.90
2018-09-01T00:42:28.937Z,99.90
2018-09-01T00:44:56.918Z,99.90
2018-09-01T00:47:26.718Z,99.90
2018-09-01T00:49:54.853Z,99.90
2018-09-01T00:52:22.779Z,99.90
2018-09-01T00:54:50.837Z,99.90
2018-09-01T00:57:19.181Z,99.90
2018-09-01T00:59:47.309Z,99.90
2018-09-01T01:02:15.383Z,99.90
2018-09-01T01:04:43.638Z,99.90
2018-09-01T01:07:13.474Z,99.90
2018-09-01T01:09:44.482Z,99.90
2018-09-01T01:12:14.356Z,99.90
2018-09-01T01:14:42.473Z,99.90
2018-09-01T01:17:10.997Z,99.90
2018-09-01T01:19:40.350Z,99.90
2018-09-01T01:22:08.543Z,99.90
2018-09-01T01:24:36.913Z,99.90
2018-09-01T01:27:05.089Z,99.90
2018-09-01T01:29:41.037Z,99.90
2018-09-01T01:32:09.130Z,99.90
2018-09-01T01:34:37.187Z,99.90
2018-09-01T01:37:05.289Z,99.90
2018-09-01T01:39:33.598Z,99.90
2018-09-01T01:42:01.669Z,99.90
2018-09-01T01:44:29.690Z,99.90
2018-09-01T01:46:58.542Z,99.90
2018-09-01T01:49:26.615Z,99.90
2018-09-01T01:51:54.619Z,99.90
2018-09-01T01:54:22.665Z,99.90
2018-09-01T01:56:51.131Z,99.90
2018-09-01T01:59:19.179Z,99.90
2018-09-01T02:01:47.203Z,99.90
2018-09-01T02:04:16.392Z,99.90
2018-09-01T02:06:44.617Z,99.90
2018-09-01T02:09:12.530Z,99.90
2018-09-01T02:11:40.522Z,99.90
2018-09-01T02:14:08.676Z,99.90
2018-09-01T02:16:36.681Z,99.90
2018-09-01T02:19:05.031Z,99.90
2018-09-01T02:21:32.993Z,99.90
2018-09-01T02:24:04.035Z,99.90
2018-09-01T02:26:32.717Z,99.90
2018-09-01T02:29:00.872Z,99.90
2018-09-01T02:31:29.451Z,99.90
2018-09-01T02:33:57.674Z,99.90
2018-09-01T02:36:25.723Z,99.90
2018-09-01T02:38:53.913Z,99.90
2018-09-01T02:41:22.153Z,99.90
2018-09-01T02:43:50.247Z,99.90
2018-09-01T02:46:18.330Z,99.90
2018-09-01T02:48:46.819Z,99.90
2018-09-01T02:51:21.570Z,99.90
2018-09-01T02:53:49.620Z,99.90
2018-09-01T02:56:17.622Z,99.90
2018-09-01T02:58:45.658Z,99.90
2018-09-01T03:01:19.240Z,99.90
2018-09-01T03:03:47.220Z,99.90
2018-09-01T03:06:15.272Z,99.90
2018-09-01T03:08:43.422Z,99.90
2018-09-01T03:11:11.458Z,99.90
2018-09-01T03:13:39.510Z,99.90
2018-09-01T03:16:07.841Z,99.90
2018-09-01T03:18:35.979Z,99.90
2018-09-01T03:21:03.968Z,99.90
2018-09-01T03:23:32.075Z,99.90
2018-09-01T03:26:00.307Z,99.90
2018-09-01T03:28:28.345Z,99.90
2018-09-01T03:30:56.252Z,99.90
2018-09-01T03:33:24.393Z,99.90
2018-09-01T03:35:56.350Z,99.90
2018-09-01T03:38:24.346Z,99.90
2018-09-01T03:40:52.354Z,99.90
2018-09-01T03:43:20.372Z,99.90
2018-09-01T03:45:48.620Z,99.90
2018-09-01T03:48:16.850Z,99.90
2018-09-01T03:50:44.965Z,99.90
2018-09-01T03:53:13.053Z,99.90
2018-09-01T03:55:40.987Z,99.90
2018-09-01T03:58:09.056Z,99.90
2018-09-01T04:00:37.454Z,99.90
2018-09-01T04:03:05.584Z,99.90
2018-09-01T04:05:33.516Z,99.90
2018-09-01T04:08:01.628Z,99.90
2018-09-01T04:10:29.543Z,99.90
2018-09-01T04:12:57.655Z,99.90
2018-09-01T04:15:25.692Z,99.90
2018-09-01T04:17:53.767Z,99.90
2018-09-01T04:20:22.144Z,99.90
2018-09-01T04:22:49.979Z,99.90
2018-09-01T04:25:18.730Z,99.90
2018-09-01T04:27:46.860Z,99.90
2018-09-01T04:30:14.951Z,99.90
2018-09-01T04:32:43.013Z,99.90
2018-09-01T04:35:11.193Z,99.90
2018-09-01T04:37:39.293Z,99.90
2018-09-01T04:40:07.395Z,99.90
2018-09-01T04:42:35.379Z,99.90
2018-09-01T04:45:03.409Z,99.90
2018-09-01T04:47:39.593Z,99.90
2018-09-01T04:50:07.677Z,99.90
2018-09-01T04:52:35.975Z,99.90
2018-09-01T04:55:04.006Z,99.90
2018-09-01T04:57:31.972Z,99.90
2018-09-01T05:00:00.363Z,99.90
2018-09-01T05:02:30.760Z,99.90
2018-09-01T05:05:06.573Z,99.90
2018-09-01T05:07:34.627Z,99.90
2018-09-01T05:10:02.728Z,99.90
2018-09-01T05:12:30.892Z,99.90
2018-09-01T05:14:58.991Z,99.90
2018-09-01T05:17:27.253Z,99.90
2018-09-01T05:19:55.354Z,99.90
2018-09-01T05:22:23.498Z,99.90
2018-09-01T05:24:51.842Z,99.90
2018-09-01T05:27:19.819Z,99.90
2018-09-01T05:29:47.853Z,99.90
2018-09-01T05:32:16.179Z,99.90
2018-09-01T05:34:44.183Z,99.90
2018-09-01T05:37:12.192Z,99.90
2018-09-01T05:39:40.936Z,99.90
2018-09-01T05:42:09.172Z,99.90
2018-09-01T05:44:37.202Z,99.90
2018-09-01T05:47:06.487Z,99.90
2018-09-01T05:49:34.535Z,99.90
2018-09-01T05:52:03.539Z,99.90
2018-09-01T05:54:31.440Z,99.90
2018-09-01T05:56:59.475Z,99.90
2018-09-01T05:59:27.567Z,99.90
2018-09-01T06:01:55.880Z,99.90
2018-09-01T06:04:24.355Z,99.90
2018-09-01T06:06:52.883Z,99.90
2018-09-01T06:09:20.856Z,99.90
2018-09-01T06:11:48.951Z,99.90
2018-09-01T06:14:17.021Z,99.90
2018-09-01T06:16:45.201Z,99.90
2018-09-01T06:19:19.808Z,99.90
2018-09-01T06:21:48.087Z,99.90
2018-09-01T06:24:16.293Z,99.90
2018-09-01T06:26:44.377Z,99.90
2018-09-01T06:29:16.763Z,99.90
2018-09-01T06:32:05.573Z,99.90
2018-09-01T06:34:33.604Z,99.90
2018-09-01T06:37:01.716Z,99.90
2018-09-01T06:39:29.779Z,99.90
2018-09-01T06:41:59.686Z,99.90
2018-09-01T06:44:28.834Z,99.90
2018-09-01T06:46:56.742Z,99.90
2018-09-01T06:49:24.813Z,99.90
2018-09-01T06:51:53.064Z,99.90
2018-09-01T06:54:21.064Z,99.90
2018-09-01T06:56:50.281Z,99.90
2018-09-01T06:59:18.970Z,99.90
2018-09-01T07:01:47.082Z,99.90
2018-09-01T07:04:14.995Z,99.90
2018-09-01T07:06:43.070Z,99.90
2018-09-01T07:09:11.153Z,99.90
2018-09-01T07:11:39.064Z,99.90
2018-09-01T07:14:06.980Z,99.90
2018-09-01T07:16:36.702Z,99.90
2018-09-01T07:19:04.808Z,99.90
2018-09-01T07:21:32.736Z,99.90
2018-09-01T07:24:01.019Z,99.90
2018-09-01T07:26:29.040Z,99.90
2018-09-01T07:28:57.048Z,99.90
2018-09-01T07:31:25.845Z,99.90
2018-09-01T07:33:53.395Z,99.90
2018-09-01T07:36:24.399Z,99.90
2018-09-01T07:38:52.517Z,99.90
2018-09-01T07:43:48.279Z,88.70
2018-09-01T07:46:16.206Z,70.00
2018-09-01T07:48:44.165Z,58.80
2018-09-01T07:51:12.206Z,52.80
2018-09-01T07:53:40.524Z,47.40
2018-09-01T07:56:08.615Z,46.90
2018-09-01T07:58:36.873Z,44.80
2018-09-01T08:01:05.740Z,44.80
2018-09-01T08:03:34.102Z,44.60
2018-09-01T08:06:02.031Z,43.20
2018-09-01T08:08:30.164Z,42.10
2018-09-01T08:10:58.144Z,42.60
2018-09-01T08:13:26.181Z,41.40
2018-09-01T08:15:54.398Z,40.90
2018-09-01T08:18:22.473Z,41.90
2018-09-01T08:20:50.533Z,40.80
2018-09-01T08:23:18.558Z,40.90
2018-09-01T08:25:46.672Z,41.10
2018-09-01T08:28:14.908Z,39.00
2018-09-01T08:30:43.091Z,39.30
2018-09-01T08:33:11.134Z,36.90
2018-09-01T08:35:39.565Z,35.20
2018-09-01T08:38:07.556Z,34.90
2018-09-01T08:40:35.568Z,33.50
2018-09-01T08:43:03.735Z,33.90
2018-09-01T08:45:31.853Z,32.30
2018-09-01T08:47:59.888Z,30.00
2018-09-01T08:50:28.210Z,31.20
2018-09-01T08:52:56.391Z,30.10
2018-09-01T08:55:24.319Z,31.20
2018-09-01T08:57:52.387Z,30.40
2018-09-01T09:00:20.493Z,30.60
2018-09-01T09:02:48.691Z,29.90
2018-09-01T09:05:16.720Z,29.70
2018-09-01T09:07:44.751Z,30.70
2018-09-01T09:10:12.797Z,29.70
2018-09-01T09:12:41.076Z,29.60
2018-09-01T09:15:11.096Z,29.20
2018-09-01T09:17:39.213Z,29.60
2018-09-01T09:20:07.301Z,28.90
2018-09-01T09:22:35.459Z,28.90
2018-09-01T09:25:03.745Z,29.90
2018-09-01T09:27:31.856Z,29.50
2018-09-01T09:29:59.929Z,31.20
2018-09-01T09:32:27.966Z,30.10
2018-09-01T09:34:56.111Z,29.10
2018-09-01T09:37:24.223Z,29.20
2018-09-01T09:39:52.132Z,29.10
2018-09-01T09:42:20.113Z,28.60
2018-09-01T09:44:48.159Z,28.00
2018-09-01T09:47:16.403Z,27.70
2018-09-01T09:49:45.282Z,27.80
2018-09-01T09:52:13.201Z,29.40
2018-09-01T09:54:44.276Z,29.00
2018-09-01T09:57:12.204Z,29.60
2018-09-01T09:59:40.336Z,29.60
2018-09-01T10:02:08.552Z,29.70
2018-09-01T10:04:36.759Z,30.70
2018-09-01T10:07:04.908Z,29.80
2018-09-01T10:09:33.298Z,28.90
2018-09-01T10:12:01.541Z,27.60
2018-09-01T10:14:29.499Z,27.00
2018-09-01T10:16:57.956Z,26.90
2018-09-01T10:19:26.052Z,27.20
2018-09-01T10:21:54.490Z,26.50
2018-09-01T10:24:23.280Z,25.40
2018-09-01T10:26:51.668Z,24.70
2018-09-01T10:29:19.720Z,25.30
2018-09-01T10:31:48.437Z,25.50
2018-09-01T10:34:23.846Z,27.00
2018-09-01T10:36:53.374Z,29.40
2018-09-01T10:39:21.959Z,32.00
2018-09-01T10:41:50.899Z,31.70
2018-09-01T10:44:19.196Z,30.70
2018-09-01T10:46:51.005Z,31.20
2018-09-01T10:49:24.401Z,29.90
2018-09-01T10:51:56.338Z,30.40
2018-09-01T10:54:30.867Z,29.20
2018-09-01T10:56:58.910Z,28.30
2018-09-01T10:59:27.041Z,27.20
2018-09-01T11:01:55.260Z,26.90
2018-09-01T11:04:24.192Z,27.30
2018-09-01T11:06:55.376Z,26.90
2018-09-01T11:09:23.610Z,26.80
2018-09-01T11:11:51.904Z,27.40
2018-09-01T11:14:20.157Z,28.30
2018-09-01T11:16:50.176Z,28.60
2018-09-01T11:21:54.624Z,29.70
2018-09-01T11:24:38.776Z,31.90
2018-09-01T11:27:07.877Z,33.30
2018-09-01T11:29:37.102Z,34.80
2018-09-01T11:32:05.847Z,35.10
2018-09-01T11:34:34.757Z,34.60
2018-09-01T11:37:02.686Z,35.50
2018-09-01T11:39:31.056Z,36.00
2018-09-01T11:41:59.453Z,36.50
2018-09-01T11:44:27.383Z,36.80
2018-09-01T11:46:55.292Z,36.70
2018-09-01T11:49:23.154Z,37.00
2018-09-01T11:51:51.511Z,36.70
2018-09-01T11:54:19.826Z,36.20
2018-09-01T11:56:49.671Z,36.00
2018-09-01T11:59:17.556Z,35.00
2018-09-01T12:01:45.477Z,34.20
2018-09-01T12:04:13.617Z,35.30
2018-09-01T12:06:41.665Z,36.20
2018-09-01T12:09:09.817Z,36.60
2018-09-01T12:11:37.738Z,36.20
2018-09-01T12:14:07.474Z,37.00
2018-09-01T12:16:36.539Z,37.40
2018-09-01T12:19:04.722Z,37.30
2018-09-01T12:21:32.807Z,37.80
2018-09-01T12:24:00.777Z,37.70
2018-09-01T12:26:30.147Z,37.90
2018-09-01T12:28:58.249Z,38.50
2018-09-01T12:31:27.179Z,39.30
2018-09-01T12:33:55.571Z,39.40
2018-09-01T12:36:23.784Z,40.20
2018-09-01T12:38:52.003Z,40.00
2018-09-01T12:41:20.129Z,39.30
2018-09-01T12:43:48.251Z,39.50
2018-09-01T12:46:16.069Z,40.20
2018-09-01T12:48:45.022Z,40.80
2018-09-01T12:51:13.303Z,40.50
2018-09-01T12:53:56.213Z,41.00
2018-09-01T12:56:37.022Z,40.40
2018-09-01T12:59:06.330Z,40.10
2018-09-01T13:01:36.712Z,38.90
2018-09-01T13:04:04.835Z,39.70
2018-09-01T13:06:33.189Z,39.80
2018-09-01T13:09:01.146Z,38.70
2018-09-01T13:11:29.503Z,38.30
2018-09-01T13:13:57.770Z,37.90
2018-09-01T13:16:26.005Z,37.40
2018-09-01T13:18:54.068Z,36.80
2018-09-01T13:21:22.099Z,36.70
2018-09-01T13:23:50.110Z,37.10
2018-09-01T13:26:19.176Z,37.70
2018-09-01T13:28:47.200Z,38.70
2018-09-01T13:31:15.339Z,39.30
2018-09-01T13:33:43.441Z,39.30
2018-09-01T13:36:11.783Z,39.50
2018-09-01T13:38:39.796Z,39.40
2018-09-01T13:41:07.775Z,38.80
2018-09-01T13:43:35.777Z,38.70
2018-09-01T13:46:04.213Z,38.10
2018-09-01T13:48:32.213Z,37.30
2018-09-01T13:51:00.400Z,37.00
2018-09-01T13:53:28.450Z,36.80
2018-09-01T13:55:56.576Z,37.00
2018-09-01T13:58:24.949Z,36.60
2018-09-01T14:00:53.110Z,37.30
2018-09-01T14:03:21.313Z,37.80
2018-09-01T14:05:54.007Z,37.80
2018-09-01T14:08:23.507Z,37.80
2018-09-01T14:10:52.338Z,38.40
2018-09-01T14:13:24.130Z,38.40
2018-09-01T14:15:52.409Z,38.00
2018-09-01T14:18:20.472Z,37.60
2018-09-01T14:20:49.958Z,37.30
2018-09-01T14:23:20.764Z,38.30
2018-09-01T14:25:49.235Z,39.50
2018-09-01T14:28:19.065Z,40.20
2018-09-01T14:30:50.629Z,40.70
2018-09-01T14:33:18.981Z,40.80
2018-09-01T14:35:47.121Z,41.70
2018-09-01T14:38:15.927Z,41.60
2018-09-01T14:40:43.859Z,41.00
2018-09-01T14:43:11.865Z,40.30
2018-09-01T14:45:40.197Z,39.60
2018-09-01T14:48:09.560Z,39.30
2018-09-01T14:50:37.603Z,39.10
2018-09-01T14:53:06.396Z,38.80
2018-09-01T14:55:40.387Z,38.60
2018-09-01T14:58:08.092Z,39.00
2018-09-01T15:00:41.773Z,39.70
2018-09-01T15:03:09.581Z,40.30
2018-09-01T15:05:37.303Z,40.40
2018-09-01T15:08:05.179Z,41.00
2018-09-01T15:10:32.886Z,41.90
2018-09-01T15:13:01.092Z,42.50
2018-09-01T15:15:28.885Z,42.80
2018-09-01T15:17:56.690Z,43.30
2018-09-01T15:20:26.734Z,43.30
2018-09-01T15:22:55.183Z,43.20
2018-09-01T15:25:23.234Z,43.40
2018-09-01T15:27:51.328Z,43.20
2018-09-01T15:30:19.483Z,43.00
2018-09-01T15:32:49.154Z,42.20
2018-09-01T15:35:21.535Z,42.60
2018-09-01T15:37:49.608Z,42.40
2018-09-01T15:40:18.136Z,41.90
2018-09-01T15:42:46.292Z,42.50
2018-09-01T15:45:14.419Z,42.90
2018-09-01T15:47:43.470Z,43.00
2018-09-01T15:50:11.610Z,43.00
2018-09-01T15:52:40.704Z,42.40
2018-09-01T15:55:10.242Z,42.20
2018-09-01T15:57:38.272Z,42.20
2018-09-01T16:00:08.513Z,42.30
2018-09-01T16:02:36.672Z,42.50
2018-09-01T16:05:04.924Z,42.70
2018-09-01T16:07:33.379Z,43.00
2018-09-01T16:10:01.834Z,43.20
2018-09-01T16:12:36.484Z,43.70
2018-09-01T16:15:04.531Z,44.10
2018-09-01T16:17:32.774Z,43.90
2018-09-01T16:20:00.893Z,43.50
2018-09-01T16:22:28.822Z,43.80
2018-09-01T16:24:56.850Z,44.00
2018-09-01T16:27:24.976Z,44.00
2018-09-01T16:29:53.880Z,43.70
2018-09-01T16:32:24.574Z,43.80
2018-09-01T16:34:52.640Z,43.90
2018-09-01T16:37:20.632Z,43.90
2018-09-01T16:39:48.468Z,44.30
2018-09-01T16:42:16.452Z,44.10
2018-09-01T16:44:44.649Z,44.70
2018-09-01T16:47:12.916Z,44.80
2018-09-01T16:49:57.067Z,45.30
2018-09-01T16:52:34.725Z,46.20
2018-09-01T16:55:03.771Z,47.00
2018-09-01T16:57:31.765Z,47.50
2018-09-01T17:00:01.668Z,47.70
2018-09-01T17:02:32.552Z,47.10
2018-09-01T17:05:02.042Z,47.40
2018-09-01T17:07:30.969Z,47.60
2018-09-01T17:09:58.982Z,47.80
2018-09-01T17:12:26.942Z,48.10
2018-09-01T17:14:55.724Z,48.30
2018-09-01T17:17:23.590Z,48.70
2018-09-01T17:19:53.560Z,49.40
2018-09-01T17:22:24.230Z,50.30
2018-09-01T17:24:52.253Z,51.10
2018-09-01T17:27:21.050Z,52.30
2018-09-01T17:29:49.077Z,53.40
2018-09-01T17:32:17.018Z,54.40
2018-09-01T17:34:45.168Z,55.30
2018-09-01T17:37:13.510Z,56.60
2018-09-01T17:39:43.009Z,57.80
2018-09-01T17:42:11.159Z,59.10
2018-09-01T17:44:39.746Z,60.40
2018-09-01T17:47:08.993Z,61.80
2018-09-01T17:49:37.134Z,63.80
2018-09-01T17:52:05.323Z,64.90
2018-09-01T17:54:33.563Z,65.90
2018-09-01T17:57:02.305Z,67.50
2018-09-01T17:59:32.129Z,68.80
2018-09-01T18:02:00.426Z,70.00
2018-09-01T18:04:28.340Z,71.60
2018-09-01T18:06:57.360Z,72.90
2018-09-01T18:09:25.465Z,75.40
2018-09-01T18:11:53.958Z,78.10
2018-09-01T18:14:23.374Z,78.70
2018-09-01T18:16:51.554Z,79.90
2018-09-01T18:19:22.152Z,80.90
2018-09-01T18:21:53.097Z,83.10
2018-09-01T18:24:21.061Z,84.80
2018-09-01T18:26:54.282Z,86.80
2018-09-01T18:29:23.678Z,87.90
2018-09-01T18:31:51.670Z,88.50
2018-09-01T18:34:20.797Z,89.90
2018-09-01T18:36:49.332Z,90.90
2018-09-01T18:39:17.477Z,92.20
2018-09-01T18:41:49.617Z,93.90
2018-09-01T18:44:18.532Z,93.80
2018-09-01T18:46:46.654Z,95.00
2018-09-01T18:49:16.200Z,95.40
2018-09-01T18:51:44.845Z,96.30
2018-09-01T18:54:13.144Z,96.90
2018-09-01T18:56:41.286Z,98.60
2018-09-01T18:59:09.358Z,99.60
2018-09-01T19:01:38.119Z,99.90
2018-09-01T19:04:06.511Z,99.90
2018-09-01T19:06:34.527Z,99.90
2018-09-01T19:09:03.469Z,99.90
2018-09-01T19:11:31.415Z,99.90
2018-09-01T19:13:59.922Z,99.90
2018-09-01T19:16:28.251Z,99.90
2018-09-01T19:18:56.429Z,99.90
2018-09-01T19:23:59.481Z,99.90
2018-09-01T19:26:27.549Z,99.90
2018-09-01T19:29:02.002Z,99.90
2018-09-01T19:31:30.286Z,99.90
2018-09-01T19:33:58.364Z,99.90
2018-09-01T19:36:27.559Z,99.90
2018-09-01T19:38:55.863Z,99.90
2018-09-01T19:41:25.822Z,99.90
2018-09-01T19:43:54.565Z,99.90
2018-09-01T19:46:22.655Z,99.90
2018-09-01T19:48:52.156Z,99.90
2018-09-01T19:51:20.624Z,99.90
2018-09-01T19:53:48.752Z,99.90
2018-09-01T19:56:23.156Z,99.90
2018-09-01T19:58:51.649Z,99.90
2018-09-01T20:01:20.252Z,99.90
2018-09-01T20:03:52.949Z,99.90
2018-09-01T20:06:21.310Z,99.90
2018-09-01T20:08:51.495Z,99.90
2018-09-01T20:11:19.747Z,99.90
2018-09-01T20:13:47.848Z,99.90
2018-09-01T20:16:16.152Z,99.90
2018-09-01T20:18:45.800Z,99.90
2018-09-01T20:21:14.265Z,99.90
2018-09-01T20:23:42.355Z,99.90
2018-09-01T20:26:10.425Z,99.90
2018-09-01T20:28:39.107Z,99.90
2018-09-01T20:31:10.782Z,99.90
2018-09-01T20:33:38.903Z,99.90
2018-09-01T20:36:11.662Z,99.90
2018-09-01T20:38:44.546Z,99.90
2018-09-01T20:41:12.713Z,99.90
2018-09-01T20:43:40.771Z,99.90
2018-09-01T20:46:09.111Z,99.90
2018-09-01T20:48:39.427Z,99.90
2018-09-01T20:51:09.478Z,99.90
2018-09-01T20:53:37.493Z,99.90
2018-09-01T20:56:05.864Z,99.90
2018-09-01T20:58:42.833Z,99.90
2018-09-01T21:01:11.012Z,99.90
2018-09-01T21:03:39.015Z,99.90
2018-09-01T21:06:07.287Z,99.90
2018-09-01T21:08:39.442Z,99.90
2018-09-01T21:11:14.977Z,99.90
2018-09-01T21:13:44.861Z,99.90
2018-09-01T21:16:18.104Z,99.90
2018-09-01T21:18:46.420Z,99.90
2018-09-01T21:21:14.492Z,99.90
2018-09-01T21:23:42.911Z,99.90
2018-09-01T21:26:26.449Z,99.90
2018-09-01T21:28:55.187Z,99.90
2018-09-01T21:31:24.153Z,99.90
2018-09-01T21:33:55.398Z,99.90
2018-09-01T21:36:23.934Z,99.90
2018-09-01T21:38:51.942Z,99.90
2018-09-01T21:41:20.125Z,99.90
2018-09-01T21:43:49.080Z,99.90
2018-09-01T21:46:21.172Z,99.90
2018-09-01T21:48:49.037Z,99.90
2018-09-01T21:51:17.890Z,99.90
2018-09-01T21:53:50.134Z,99.90
2018-09-01T21:56:19.223Z,99.90
2018-09-01T21:58:57.566Z,99.90
2018-09-01T22:01:32.418Z,99.90
2018-09-01T22:04:00.542Z,99.90
2018-09-01T22:06:28.705Z,99.90
2018-09-01T22:08:56.960Z,99.90
2018-09-01T22:11:41.899Z,99.90
2018-09-01T22:14:09.996Z,99.90
2018-09-01T22:16:38.154Z,99.90
2018-09-01T22:19:07.867Z,99.90
2018-09-01T22:21:36.934Z,99.90
2018-09-01T22:24:05.320Z,99.90
2018-09-01T22:26:33.463Z,99.90
2018-09-01T22:29:06.675Z,99.90
2018-09-01T22:31:34.950Z,99.90
2018-09-01T22:34:02.939Z,99.90
2018-09-01T22:36:31.191Z,99.90
2018-09-01T22:39:01.748Z,99.90
2018-09-01T22:41:31.474Z,99.90
2018-09-01T22:43:59.572Z,99.90
2018-09-01T22:51:52.918Z,99.90
2018-09-01T22:54:32.963Z,99.90
2018-09-01T22:57:00.648Z,99.90
2018-09-01T22:59:28.325Z,99.90
2018-09-01T23:01:59.328Z,99.90
2018-09-01T23:04:34.771Z,99.90
2018-09-01T23:07:02.732Z,99.90
2018-09-01T23:09:31.969Z,99.90
2018-09-01T23:12:01.649Z,99.90
2018-09-01T23:14:31.779Z,99.90
2018-09-01T23:16:59.843Z,99.90
2018-09-01T23:19:28.215Z,99.90
2018-09-01T23:22:07.746Z,99.90
2018-09-01T23:24:35.850Z,99.90
2018-09-01T23:27:03.843Z,99.90
2018-09-01T23:29:32.345Z,99.90
2018-09-01T23:32:01.822Z,99.90
2018-09-01T23:34:29.954Z,99.90
2018-09-01T23:36:57.988Z,99.90
2018-09-01T23:39:26.186Z,99.90
2018-09-01T23:41:56.785Z,99.90
2018-09-01T23:44:28.954Z,99.90
2018-09-01T23:47:03.084Z,99.90
2018-09-01T23:49:45.212Z,99.90
2018-09-01T23:52:19.150Z,99.90
2018-09-01T23:54:47.372Z,99.90
2018-09-01T23:57:28.880Z,99.90
2018-09-01T23:59:57.916Z,99.90
